createdAt,value
2022-12-05T00:01:20.753Z,0.00
2022-12-05T00:03:49.546Z,0.00
2022-12-05T00:06:17.533Z,0.00
2022-12-05T00:08:45.390Z,1.00
2022-12-05T00:11:19.125Z,1.00
2022-12-05T00:13:46.473Z,1.00
2022-12-05T00:16:33.112Z,0.00
2022-12-05T00:19:01.449Z,0.00
2022-12-05T00:21:31.414Z,0.00
2022-12-05T00:24:00.978Z,0.00
2022-12-05T00:26:28.706Z,0.00
2022-12-05T00:28:57.435Z,0.00
2022-12-05T00:31:25.928Z,0.00
2022-12-05T00:33:53.995Z,0.00
2022-12-05T00:36:26.819Z,0.00
2022-12-05T00:38:54.228Z,1.00
2022-12-05T00:41:25.235Z,0.75
2022-12-05T00:43:53.206Z,0.00
2022-12-05T00:46:22.893Z,1.00
2022-12-05T00:48:50.239Z,1.00
2022-12-05T00:51:21.047Z,0.00
2022-12-05T00:53:48.352Z,0.00
2022-12-05T00:56:18.180Z,1.00
2022-12-05T00:58:45.796Z,1.00
2022-12-05T01:01:14.282Z,0.00
2022-12-05T01:03:42.104Z,0.00
2022-12-05T01:06:09.757Z,1.00
2022-12-05T01:08:37.446Z,1.00
2022-12-05T01:11:06.483Z,1.00
2022-12-05T01:13:34.377Z,0.50
2022-12-05T01:16:01.397Z,1.00
2022-12-05T01:18:29.538Z,0.25
2022-12-05T01:20:57.016Z,0.00
2022-12-05T01:23:24.630Z,1.00
2022-12-05T01:25:52.618Z,0.00
2022-12-05T01:28:20.119Z,0.00
2022-12-05T01:30:49.294Z,0.00
2022-12-05T01:33:17.113Z,0.00
2022-12-05T01:35:44.540Z,0.00
2022-12-05T01:38:12.890Z,0.00
2022-12-05T01:40:40.936Z,0.00
2022-12-05T01:43:16.595Z,0.25
2022-12-05T01:45:46.308Z,2.25
2022-12-05T01:48:39.714Z,0.00
2022-12-05T01:51:06.745Z,1.00
2022-12-05T01:53:34.065Z,0.00
2022-12-05T01:56:01.644Z,0.00
2022-12-05T01:58:34.542Z,0.00
2022-12-05T02:01:02.221Z,1.00
2022-12-05T02:03:29.232Z,0.00
2022-12-05T02:05:58.923Z,0.00
2022-12-05T02:08:28.842Z,0.00
2022-12-05T02:10:57.703Z,0.00
2022-12-05T02:13:58.691Z,0.00
2022-12-05T02:16:34.935Z,0.00
2022-12-05T02:19:35.179Z,0.00
2022-12-05T02:22:23.497Z,0.00
2022-12-05T02:25:08.858Z,0.00
2022-12-05T02:27:47.670Z,0.00
2022-12-05T02:30:20.864Z,0.00
2022-12-05T02:33:18.144Z,0.00
2022-12-05T02:36:00.490Z,0.00
2022-12-05T02:38:58.926Z,1.00
2022-12-05T02:41:36.681Z,0.00
2022-12-05T02:44:14.287Z,0.00
2022-12-05T02:46:43.101Z,0.00
2022-12-05T02:49:14.735Z,0.00
2022-12-05T02:51:49.350Z,0.00
2022-12-05T02:54:23.928Z,0.00
2022-12-05T02:56:53.243Z,0.00
2022-12-05T02:59:23.464Z,0.00
2022-12-05T03:01:51.716Z,0.00
2022-12-05T03:04:21.414Z,0.00
2022-12-05T03:07:08.558Z,0.00
2022-12-05T03:09:42.816Z,0.00
2022-12-05T03:12:16.849Z,0.00
2022-12-05T03:14:55.835Z,0.00
2022-12-05T03:17:30.144Z,0.00
2022-12-05T03:20:13.758Z,0.00
2022-12-05T03:22:48.287Z,0.00
2022-12-05T03:25:15.940Z,0.00
2022-12-05T03:27:53.302Z,1.00
2022-12-05T03:30:23.323Z,0.00
2022-12-05T03:33:01.827Z,1.00
2022-12-05T03:35:37.812Z,0.00
2022-12-05T03:38:38.273Z,1.00
2022-12-05T03:41:13.804Z,0.25
2022-12-05T03:43:52.288Z,1.00
2022-12-05T03:46:32.063Z,0.00
2022-12-05T03:49:05.149Z,0.00
2022-12-05T03:51:39.302Z,1.00
2022-12-05T03:54:21.269Z,0.00
2022-12-05T03:57:02.871Z,0.00
2022-12-05T03:59:48.663Z,3.00
2022-12-05T04:02:34.809Z,2.00
2022-12-05T04:05:11.961Z,3.75
2022-12-05T04:07:41.966Z,3.00
2022-12-05T04:10:25.671Z,2.00
2022-12-05T04:12:56.357Z,3.00
2022-12-05T04:15:28.689Z,3.00
2022-12-05T04:18:00.652Z,1.00
2022-12-05T04:20:42.108Z,2.25
2022-12-05T04:23:10.131Z,3.00
2022-12-05T04:25:51.129Z,1.00
2022-12-05T04:28:30.052Z,1.00
2022-12-05T04:31:17.131Z,1.50
2022-12-05T04:33:50.126Z,3.00
2022-12-05T04:36:16.953Z,1.00
2022-12-05T04:39:05.481Z,3.25
2022-12-05T04:41:55.029Z,5.00
2022-12-05T04:44:27.414Z,2.50
2022-12-05T04:46:57.729Z,5.00
2022-12-05T04:49:28.312Z,3.00
2022-12-05T04:52:02.432Z,5.00
2022-12-05T04:54:41.938Z,4.25
2022-12-05T04:57:35.668Z,3.00
2022-12-05T05:00:02.740Z,4.00
2022-12-05T05:02:45.218Z,3.75
2022-12-05T05:05:16.662Z,4.00
2022-12-05T05:07:52.475Z,3.75
2022-12-05T05:10:36.701Z,3.00
2022-12-05T05:13:03.918Z,1.00
2022-12-05T05:15:30.901Z,1.00
2022-12-05T05:17:57.912Z,1.25
2022-12-05T05:20:24.827Z,3.00
2022-12-05T05:22:53.319Z,3.00
2022-12-05T05:25:20.603Z,3.00
2022-12-05T05:27:53.726Z,4.00
2022-12-05T05:30:22.382Z,3.00
2022-12-05T05:32:49.844Z,1.00
2022-12-05T05:35:17.782Z,1.50
2022-12-05T05:37:44.808Z,2.00
2022-12-05T05:40:13.527Z,3.00
2022-12-05T05:42:45.769Z,1.00
2022-12-05T05:45:14.343Z,1.00
2022-12-05T05:47:42.205Z,1.00
2022-12-05T05:50:10.201Z,2.00
2022-12-05T05:52:37.814Z,4.00
2022-12-05T05:55:06.414Z,1.00
2022-12-05T05:57:33.520Z,1.00
2022-12-05T06:00:00.753Z,2.00
2022-12-05T06:02:32.807Z,3.00
2022-12-05T06:04:59.918Z,2.00
2022-12-05T06:07:27.176Z,3.00
2022-12-05T06:09:54.063Z,1.50
2022-12-05T06:12:21.123Z,4.00
2022-12-05T06:14:49.207Z,4.00
2022-12-05T06:17:16.308Z,2.75
2022-12-05T06:19:43.332Z,4.00
2022-12-05T06:22:10.210Z,1.00
2022-12-05T06:24:37.153Z,3.00
2022-12-05T06:27:04.459Z,3.00
2022-12-05T06:29:33.937Z,5.00
2022-12-05T06:32:01.723Z,5.25
2022-12-05T06:34:29.043Z,4.75
2022-12-05T06:36:55.914Z,4.25
2022-12-05T06:39:22.713Z,6.00
2022-12-05T06:41:49.611Z,5.50
2022-12-05T06:44:16.424Z,6.00
2022-12-05T06:46:43.325Z,9.00
2022-12-05T06:49:10.758Z,10.00
2022-12-05T06:51:37.604Z,10.00
2022-12-05T06:54:04.599Z,8.75
2022-12-05T06:56:31.497Z,8.75
2022-12-05T06:58:58.685Z,9.25
2022-12-05T07:01:26.771Z,8.25
2022-12-05T07:03:53.761Z,11.00
2022-12-05T07:06:20.584Z,7.50
2022-12-05T07:08:47.417Z,11.75
2022-12-05T07:11:14.404Z,12.50
2022-12-05T07:13:41.279Z,13.75
2022-12-05T07:16:08.285Z,15.50
2022-12-05T07:18:36.419Z,14.00
2022-12-05T07:21:14.505Z,15.25
2022-12-05T07:23:46.170Z,16.25
2022-12-05T07:26:15.470Z,15.75
2022-12-05T07:28:42.568Z,13.00
2022-12-05T07:31:12.101Z,19.00
2022-12-05T07:33:39.413Z,12.75
2022-12-05T07:36:12.188Z,13.00
2022-12-05T07:38:39.707Z,11.00
2022-12-05T07:41:14.189Z,11.00
2022-12-05T07:43:42.080Z,10.00
2022-12-05T07:46:10.801Z,13.00
2022-12-05T07:48:37.866Z,11.25
2022-12-05T07:51:06.864Z,12.00
2022-12-05T07:53:34.572Z,12.00
2022-12-05T07:56:03.694Z,13.00
2022-12-05T07:58:32.292Z,11.00
2022-12-05T08:01:13.408Z,11.00
2022-12-05T08:03:41.348Z,11.50
2022-12-05T08:06:11.143Z,12.00
2022-12-05T08:08:38.183Z,10.50
2022-12-05T08:11:10.578Z,12.25
2022-12-05T08:13:37.805Z,14.00
2022-12-05T08:16:08.384Z,12.00
2022-12-05T08:18:35.429Z,10.00
2022-12-05T08:21:04.456Z,12.00
2022-12-05T08:23:32.213Z,12.00
2022-12-05T08:26:04.121Z,14.00
2022-12-05T08:28:32.325Z,12.00
2022-12-05T08:31:07.856Z,12.00
2022-12-05T08:33:35.221Z,12.00
2022-12-05T08:36:04.422Z,12.00
2022-12-05T08:38:31.935Z,12.00
2022-12-05T08:41:07.943Z,12.00
2022-12-05T08:43:35.444Z,11.00
2022-12-05T08:46:02.907Z,12.00
2022-12-05T08:48:33.415Z,9.75
2022-12-05T08:51:05.579Z,8.00
2022-12-05T08:53:32.557Z,8.25
2022-12-05T08:56:07.265Z,7.75
2022-12-05T08:58:34.554Z,11.75
2022-12-05T09:01:13.339Z,21.00
2022-12-05T09:03:47.274Z,9.25
2022-12-05T09:06:20.197Z,10.75
2022-12-05T09:08:48.313Z,9.00
2022-12-05T09:11:21.227Z,5.00
2022-12-05T09:13:49.524Z,3.25
2022-12-05T09:16:26.638Z,3.00
2022-12-05T09:18:53.651Z,4.00
2022-12-05T09:21:23.734Z,5.00
2022-12-05T09:23:51.700Z,6.25
2022-12-05T09:26:21.740Z,5.50
2022-12-05T09:28:49.055Z,6.00
2022-12-05T09:31:19.365Z,11.00
2022-12-05T09:33:47.776Z,9.00
2022-12-05T09:36:21.071Z,8.00
2022-12-05T09:38:48.104Z,10.25
2022-12-05T09:41:24.102Z,10.00
2022-12-05T09:44:03.406Z,12.00
2022-12-05T09:46:39.909Z,9.00
2022-12-05T09:49:11.582Z,7.00
2022-12-05T09:51:44.322Z,9.25
2022-12-05T09:54:13.181Z,15.00
2022-12-05T09:56:43.671Z,10.50
2022-12-05T09:59:16.149Z,10.00
2022-12-05T10:01:57.592Z,12.00
2022-12-05T10:05:00.334Z,11.00
2022-12-05T10:07:50.324Z,11.00
2022-12-05T10:10:48.840Z,10.50
2022-12-05T10:13:15.761Z,10.00
2022-12-05T10:15:57.575Z,19.25
2022-12-05T10:18:44.239Z,19.75
2022-12-05T10:21:25.294Z,17.00
2022-12-05T10:24:02.522Z,15.50
2022-12-05T10:27:07.116Z,12.00
2022-12-05T10:29:58.527Z,12.00
2022-12-05T10:32:36.223Z,13.00
2022-12-05T10:35:27.902Z,14.00
2022-12-05T10:37:59.285Z,12.00
2022-12-05T10:40:55.419Z,13.00
2022-12-05T10:43:28.048Z,17.75
2022-12-05T10:45:55.976Z,14.75
2022-12-05T10:48:24.092Z,10.00
2022-12-05T10:50:54.189Z,8.00
2022-12-05T10:53:47.928Z,8.00
2022-12-05T10:56:39.467Z,10.50
2022-12-05T10:59:09.312Z,9.00
2022-12-05T11:01:38.241Z,9.75
2022-12-05T11:04:19.707Z,8.00
2022-12-05T11:07:01.922Z,6.00
2022-12-05T11:09:34.003Z,7.00
2022-12-05T11:12:09.707Z,3.75
2022-12-05T11:14:36.735Z,4.00
2022-12-05T11:17:05.525Z,7.25
2022-12-05T11:19:38.375Z,5.00
2022-12-05T11:22:06.034Z,5.25
2022-12-05T11:24:35.337Z,5.50
2022-12-05T11:27:17.724Z,3.50
2022-12-05T11:30:04.922Z,4.00
2022-12-05T11:32:33.823Z,7.25
2022-12-05T11:35:06.598Z,5.50
2022-12-05T11:37:55.796Z,5.75
2022-12-05T11:40:35.225Z,4.50
2022-12-05T11:43:14.576Z,3.00
2022-12-05T11:46:08.797Z,9.25
2022-12-05T11:48:57.632Z,7.25
2022-12-05T11:51:42.390Z,5.00
2022-12-05T11:55:03.401Z,5.00
2022-12-05T11:57:31.524Z,5.00
2022-12-05T12:00:23.715Z,3.00
2022-12-05T12:03:33.691Z,5.25
2022-12-05T12:06:16.075Z,5.75
2022-12-05T12:08:56.923Z,5.00
2022-12-05T12:11:31.671Z,5.25
2022-12-05T12:14:20.458Z,3.75
2022-12-05T12:17:10.721Z,2.50
2022-12-05T12:19:52.771Z,3.50
2022-12-05T12:22:44.825Z,4.50
2022-12-05T12:25:44.802Z,4.00
2022-12-05T12:28:14.773Z,3.00
2022-12-05T12:30:47.451Z,3.00
2022-12-05T12:33:34.432Z,5.00
2022-12-05T12:36:18.248Z,5.00
2022-12-05T12:39:03.137Z,8.00
2022-12-05T12:41:49.642Z,6.00
2022-12-05T12:44:22.526Z,5.75
2022-12-05T12:47:01.513Z,5.00
2022-12-05T12:49:59.193Z,6.50
2022-12-05T12:52:44.796Z,9.00
2022-12-05T12:55:21.967Z,7.00
2022-12-05T12:58:07.239Z,6.00
2022-12-05T13:00:47.729Z,7.00
2022-12-05T13:03:23.155Z,7.25
2022-12-05T13:06:24.193Z,11.00
2022-12-05T13:08:57.602Z,13.25
2022-12-05T13:11:27.745Z,18.25
2022-12-05T13:13:58.816Z,14.25
2022-12-05T13:16:48.383Z,11.00
2022-12-05T13:19:23.694Z,11.00
2022-12-05T13:21:51.805Z,9.00
2022-12-05T13:24:25.251Z,7.00
2022-12-05T13:26:52.865Z,7.25
2022-12-05T13:29:34.799Z,8.00
2022-12-05T13:32:04.724Z,7.00
2022-12-05T13:34:45.511Z,7.25
2022-12-05T13:37:32.232Z,6.50
2022-12-05T13:39:59.408Z,5.00
2022-12-05T13:42:29.590Z,4.75
2022-12-05T13:45:05.833Z,3.00
2022-12-05T13:47:51.628Z,4.75
2022-12-05T13:50:28.722Z,8.00
2022-12-05T13:53:00.972Z,9.00
2022-12-05T13:55:38.773Z,17.00
2022-12-05T13:58:20.750Z,12.75
2022-12-05T14:00:47.909Z,9.25
2022-12-05T14:03:33.022Z,12.50
2022-12-05T14:06:00.236Z,12.00
2022-12-05T14:08:33.111Z,12.00
2022-12-05T14:10:59.955Z,11.00
2022-12-05T14:13:26.850Z,9.00
2022-12-05T14:15:55.107Z,13.25
2022-12-05T14:18:40.395Z,12.50
2022-12-05T14:21:17.046Z,13.00
2022-12-05T14:24:09.164Z,11.75
2022-12-05T14:27:02.251Z,9.75
2022-12-05T14:29:39.782Z,11.50
2022-12-05T14:32:20.093Z,14.00
2022-12-05T14:35:00.907Z,11.00
2022-12-05T14:37:38.054Z,10.00
2022-12-05T14:40:27.359Z,12.75
2022-12-05T14:43:04.624Z,12.50
2022-12-05T14:45:40.977Z,12.00
2022-12-05T14:48:14.456Z,13.25
2022-12-05T14:50:48.472Z,16.00
2022-12-05T14:53:15.407Z,18.00
2022-12-05T14:55:46.444Z,19.75
2022-12-05T14:58:29.820Z,17.75
2022-12-05T15:01:00.086Z,15.00
2022-12-05T15:03:38.740Z,15.00
2022-12-05T15:06:12.103Z,14.00
2022-12-05T15:08:49.819Z,12.25
2022-12-05T15:11:20.631Z,13.25
2022-12-05T15:13:47.779Z,13.25
2022-12-05T15:16:19.942Z,14.75
2022-12-05T15:18:51.246Z,13.00
2022-12-05T15:21:38.343Z,12.00
2022-12-05T15:24:12.264Z,12.25
2022-12-05T15:26:48.598Z,11.00
2022-12-05T15:29:23.916Z,16.75
2022-12-05T15:32:12.072Z,17.00
2022-12-05T15:34:51.530Z,25.25
2022-12-05T15:37:40.357Z,21.00
2022-12-05T15:40:19.937Z,20.00
2022-12-05T15:42:51.689Z,15.25
2022-12-05T15:45:22.006Z,11.00
2022-12-05T15:47:55.619Z,13.75
2022-12-05T15:50:44.750Z,14.25
2022-12-05T15:53:35.200Z,14.00
2022-12-05T15:56:09.589Z,10.25
2022-12-05T15:58:56.978Z,9.75
2022-12-05T16:01:26.001Z,7.00
2022-12-05T16:04:35.379Z,6.00
2022-12-05T16:07:08.227Z,7.00
2022-12-05T16:09:40.917Z,11.00
2022-12-05T16:12:47.707Z,13.00
2022-12-05T16:15:25.488Z,12.00
2022-12-05T16:17:58.268Z,11.00
2022-12-05T16:20:37.072Z,11.00
2022-12-05T16:23:21.487Z,5.50
2022-12-05T16:25:48.600Z,4.00
2022-12-05T16:28:18.233Z,3.00
2022-12-05T16:31:02.878Z,4.50
2022-12-05T16:33:31.487Z,5.50
2022-12-05T16:36:12.473Z,2.00
2022-12-05T16:38:40.042Z,3.50
2022-12-05T16:41:08.209Z,3.50
2022-12-05T16:43:35.154Z,6.50
2022-12-05T16:46:11.347Z,8.00
2022-12-05T16:48:40.281Z,10.00
2022-12-05T16:51:13.781Z,10.50
2022-12-05T16:53:44.400Z,9.75
2022-12-05T16:56:15.910Z,9.25
2022-12-05T16:58:43.048Z,8.00
2022-12-05T17:01:20.695Z,6.25
2022-12-05T17:03:48.527Z,4.25
2022-12-05T17:06:16.263Z,8.00
2022-12-05T17:08:43.322Z,7.25
2022-12-05T17:11:36.897Z,9.00
2022-12-05T17:14:04.332Z,8.00
2022-12-05T17:16:31.279Z,8.00
2022-12-05T17:18:58.308Z,6.25
2022-12-05T17:21:29.561Z,6.00
2022-12-05T17:23:57.425Z,6.00
2022-12-05T17:26:24.386Z,8.50
2022-12-05T17:28:51.676Z,5.00
2022-12-05T17:31:21.747Z,6.00
2022-12-05T17:33:49.919Z,10.00
2022-12-05T17:36:17.411Z,8.00
2022-12-05T17:38:44.920Z,8.00
2022-12-05T17:41:17.460Z,10.25
2022-12-05T17:43:45.632Z,10.00
2022-12-05T17:46:18.973Z,12.00
2022-12-05T17:48:48.573Z,9.00
2022-12-05T17:51:15.762Z,18.25
2022-12-05T17:53:44.148Z,19.00
2022-12-05T17:56:12.856Z,17.00
2022-12-05T17:58:40.462Z,17.25
2022-12-05T18:01:07.816Z,16.25
2022-12-05T18:03:34.898Z,17.00
2022-12-05T18:06:04.661Z,17.00
2022-12-05T18:08:32.580Z,15.25
2022-12-05T18:10:59.615Z,14.00
2022-12-05T18:13:26.694Z,12.00
2022-12-05T18:15:58.273Z,14.50
2022-12-05T18:18:26.601Z,15.00
2022-12-05T18:20:53.830Z,17.00
2022-12-05T18:23:23.901Z,14.00
2022-12-05T18:25:58.761Z,14.75
2022-12-05T18:28:27.191Z,15.00
2022-12-05T18:31:09.665Z,14.00
2022-12-05T18:33:39.529Z,13.00
2022-12-05T18:36:12.312Z,13.00
2022-12-05T18:38:39.369Z,14.00
2022-12-05T18:41:07.116Z,13.00
2022-12-05T18:43:34.658Z,12.00
2022-12-05T18:46:04.273Z,15.75
2022-12-05T18:48:43.491Z,17.00
2022-12-05T18:51:20.842Z,15.00
2022-12-05T18:53:50.131Z,15.50
2022-12-05T18:56:22.736Z,17.25
2022-12-05T18:59:04.906Z,19.00
2022-12-05T19:01:34.478Z,17.00
2022-12-05T19:04:03.046Z,20.00
2022-12-05T19:06:32.545Z,16.75
2022-12-05T19:09:02.362Z,14.25
2022-12-05T19:11:29.440Z,13.75
2022-12-05T19:13:57.837Z,12.50
2022-12-05T19:16:26.335Z,11.00
2022-12-05T19:18:56.280Z,12.25
2022-12-05T19:21:25.880Z,13.00
2022-12-05T19:23:53.109Z,11.00
2022-12-05T19:26:20.809Z,10.00
2022-12-05T19:28:48.363Z,14.50
2022-12-05T19:31:19.064Z,14.25
2022-12-05T19:33:52.885Z,17.00
2022-12-05T19:36:23.244Z,13.00
2022-12-05T19:38:54.033Z,13.00
2022-12-05T19:41:24.969Z,15.25
2022-12-05T19:43:52.917Z,16.50
2022-12-05T19:46:23.360Z,14.25
2022-12-05T19:48:51.162Z,14.25
2022-12-05T19:51:18.219Z,19.00
2022-12-05T19:53:45.978Z,17.50
2022-12-05T19:56:14.314Z,16.00
2022-12-05T19:58:42.315Z,13.50
2022-12-05T20:01:23.946Z,15.50
2022-12-05T20:03:53.717Z,15.00
2022-12-05T20:06:21.372Z,22.00
2022-12-05T20:08:48.996Z,19.00
2022-12-05T20:11:21.895Z,18.25
2022-12-05T20:13:49.075Z,20.00
2022-12-05T20:16:18.536Z,17.75
2022-12-05T20:18:46.831Z,17.00
2022-12-05T20:21:16.570Z,15.00
2022-12-05T20:23:43.583Z,12.75
2022-12-05T20:26:13.411Z,11.75
2022-12-05T20:28:40.668Z,7.25
2022-12-05T20:31:17.809Z,4.00
2022-12-05T20:33:45.373Z,4.50
2022-12-05T20:36:18.129Z,3.00
2022-12-05T20:38:46.002Z,6.00
2022-12-05T20:41:16.107Z,5.25
2022-12-05T20:43:44.299Z,8.75
2022-12-05T20:46:14.677Z,11.50
2022-12-05T20:48:42.305Z,10.50
2022-12-05T20:51:11.809Z,10.75
2022-12-05T20:53:40.627Z,10.00
2022-12-05T20:56:21.800Z,9.00
2022-12-05T20:58:51.241Z,10.00
2022-12-05T21:01:20.537Z,11.00
2022-12-05T21:03:49.887Z,11.50
2022-12-05T21:06:24.154Z,10.75
2022-12-05T21:08:52.322Z,9.25
2022-12-05T21:11:19.962Z,10.50
2022-12-05T21:13:46.938Z,9.75
2022-12-05T21:16:16.743Z,10.00
2022-12-05T21:18:44.481Z,11.25
2022-12-05T21:21:22.650Z,11.50
2022-12-05T21:23:55.563Z,12.50
2022-12-05T21:26:24.498Z,12.00
2022-12-05T21:28:52.310Z,13.00
2022-12-05T21:31:22.751Z,12.00
2022-12-05T21:33:53.250Z,12.50
2022-12-05T21:36:21.187Z,15.00
2022-12-05T21:38:52.410Z,14.00
2022-12-05T21:41:23.549Z,12.00
2022-12-05T21:43:54.366Z,10.00
2022-12-05T21:46:24.890Z,12.25
2022-12-05T21:48:51.926Z,11.00
2022-12-05T21:51:19.322Z,9.00
2022-12-05T21:53:46.174Z,10.00
2022-12-05T21:56:15.767Z,10.00
2022-12-05T21:58:44.843Z,9.00
2022-12-05T22:01:17.504Z,10.00
2022-12-05T22:03:45.356Z,12.50
2022-12-05T22:06:13.799Z,10.00
2022-12-05T22:08:40.964Z,7.50
2022-12-05T22:11:12.984Z,7.75
2022-12-05T22:13:40.603Z,10.00
2022-12-05T22:16:08.306Z,10.00
2022-12-05T22:18:35.961Z,7.00
2022-12-05T22:21:17.337Z,6.50
2022-12-05T22:23:44.739Z,9.00
2022-12-05T22:26:22.589Z,10.00
2022-12-05T22:28:51.148Z,6.00
2022-12-05T22:31:19.370Z,6.00
2022-12-05T22:33:47.494Z,4.25
2022-12-05T22:36:16.681Z,6.00
2022-12-05T22:38:46.082Z,3.00
2022-12-05T22:41:18.645Z,4.75
2022-12-05T22:43:47.067Z,6.00
2022-12-05T22:46:19.654Z,3.50
2022-12-05T22:48:48.458Z,4.00
2022-12-05T22:51:16.874Z,5.75
2022-12-05T22:53:44.443Z,5.00
2022-12-05T22:56:14.232Z,5.00
2022-12-05T22:58:42.149Z,5.00
2022-12-05T23:01:20.841Z,5.00
2022-12-05T23:03:49.787Z,5.00
2022-12-05T23:06:17.925Z,4.75
2022-12-05T23:08:46.419Z,6.00
2022-12-05T23:11:13.346Z,5.00
2022-12-05T23:13:40.288Z,3.75
2022-12-05T23:16:13.105Z,3.50
2022-12-05T23:18:40.627Z,5.00
2022-12-05T23:21:07.496Z,4.00
2022-12-05T23:23:34.477Z,4.00
2022-12-05T23:26:01.351Z,3.00
2022-12-05T23:28:28.177Z,4.25
2022-12-05T23:30:55.112Z,3.00
2022-12-05T23:33:22.146Z,2.25
2022-12-05T23:35:53.946Z,3.00
2022-12-05T23:38:20.900Z,1.00
2022-12-05T23:41:02.483Z,1.00
2022-12-05T23:43:31.294Z,2.75
2022-12-05T23:45:58.256Z,1.00
2022-12-05T23:48:25.772Z,2.75
2022-12-05T23:51:06.037Z,3.00
2022-12-05T23:53:36.190Z,2.25
2022-12-05T23:56:06.443Z,3.00
2022-12-05T23:58:33.967Z,2.50
